Time;durP1;ratioP1;P1;durP2;ratioP2;P2;SDS_P1;SDS_P2;PMS_P1;PMS_P2;Temp;Humidity;BMP_temperature;BMP_pressure;BME280_temperature;BME280_humidity;BME280_pressure;Samples;Min_cycle;Max_cycle;Signal;HPM_P1;HPM_P2
2022/08/26 00:01:13;;;;;;;;;;;;;;;22.28;73.95;100730.58;1746921;79;84255;-67
2022/08/26 00:03:39;;;;;;;;;;;;;;;22.24;73.93;100731.36;1761794;79;26440;-69
2022/08/26 00:06:05;;;;;;;;;;;;;;;22.22;74.22;100733.36;1759479;79;26180;-69
2022/08/26 00:08:31;;;;;;;;;;;;;;;22.20;74.16;100728.55;1761200;79;84221;-69
2022/08/26 00:10:57;;;;;;;;;;;;;;;22.19;74.40;100726.81;1758567;79;27495;-69
2022/08/26 00:13:23;;;;;;;;;;;;;;;22.18;74.61;100724.23;1754235;79;84432;-69
2022/08/26 00:15:51;;;;;;;;;;;;;;;22.15;74.93;100714.45;1764130;79;36093;-68
2022/08/26 00:18:17;;;;;;;;;;;;;;;22.15;74.86;100714.95;1757072;79;26345;-68
2022/08/26 00:20:44;;;;;;;;;;;;;;;22.11;75.18;100711.63;1771144;79;84189;-69
2022/08/26 00:23:09;;;;;;;;;;;;;;;22.08;75.30;100711.91;1768818;79;27302;-68
2022/08/26 00:25:36;;;;;;;;;;;;;;;22.07;75.29;100710.19;1760103;79;84371;-68
2022/08/26 00:28:02;;;;;;;;;;;;;;;22.06;75.52;100702.13;1754036;79;25781;-68
2022/08/26 00:30:30;;;;;;;;;;;;;;;22.02;75.72;100702.41;1735567;80;25800;-68
2022/08/26 00:32:56;;;;;;;;;;;;;;;22.01;75.97;100709.34;1762098;79;84077;-69
2022/08/26 00:35:23;;;;;;;;;;;;;;;22.01;76.12;100704.75;1766857;79;28801;-69
2022/08/26 00:37:50;;;;;;;;;;;;;;;21.99;76.35;100703.16;1759077;79;85278;-70
2022/08/26 00:40:19;;;;;;;;;;;;;;;21.99;76.41;100705.88;1766469;79;25758;-68
2022/08/26 00:42:45;;;;;;;;;;;;;;;21.98;76.48;100700.06;1752170;79;25750;-68
2022/08/26 00:45:11;;;;;;;;;;;;;;;21.97;76.82;100703.30;1757015;79;84133;-70
2022/08/26 00:47:44;;;;;;;;;;;;;;;21.97;76.73;100701.06;1755951;79;27408;-69
2022/08/26 00:50:17;;;;;;;;;;;;;;;21.95;76.83;100696.24;1748024;79;85010;-69
2022/08/26 00:52:41;;;;;;;;;;;;;;;21.91;76.71;100697.02;1752133;79;25806;-69
2022/08/26 00:55:10;;;;;;;;;;;;;;;21.89;77.05;100693.56;1762247;79;85136;-69
2022/08/26 00:57:36;;;;;;;;;;;;;;;21.85;77.11;100693.98;1757844;79;26539;-69
2022/08/26 01:00:06;;;;;;;;;;;;;;;21.81;77.41;100693.39;1775031;79;27407;-69
2022/08/26 01:02:33;;;;;;;;;;;;;;;21.80;77.71;100688.94;1765200;79;84156;-70
2022/08/26 01:05:01;;;;;;;;;;;;;;;21.80;77.63;100689.44;1757942;79;25639;-69
2022/08/26 01:07:28;;;;;;;;;;;;;;;21.78;77.68;100688.70;1759457;79;85455;-69
2022/08/26 01:09:55;;;;;;;;;;;;;;;21.74;77.82;100690.84;1759677;79;26420;-69
2022/08/26 01:12:23;;;;;;;;;;;;;;;21.72;77.84;100690.12;1745190;79;28067;-68
2022/08/26 01:14:49;;;;;;;;;;;;;;;21.68;78.05;100688.66;1764913;79;84956;-69
2022/08/26 01:17:15;;;;;;;;;;;;;;;21.64;78.39;100686.71;1750546;79;25667;-68
2022/08/26 01:19:43;;;;;;;;;;;;;;;21.61;78.47;100682.89;1766410;79;84350;-68
2022/08/26 01:22:15;;;;;;;;;;;;;;;21.58;78.66;100681.80;1751418;79;25833;-69
2022/08/26 01:24:42;;;;;;;;;;;;;;;21.56;78.69;100687.03;1765405;79;27763;-69
2022/08/26 01:27:10;;;;;;;;;;;;;;;21.54;78.92;100680.34;1751551;79;84941;-69
2022/08/26 01:29:38;;;;;;;;;;;;;;;21.54;79.08;100682.20;1765972;79;26316;-69
2022/08/26 01:32:06;;;;;;;;;;;;;;;21.50;79.12;100683.48;1752446;79;84370;-69
2022/08/26 01:34:35;;;;;;;;;;;;;;;21.47;79.31;100681.02;1752257;79;25866;-69
2022/08/26 01:37:09;;;;;;;;;;;;;;;21.44;79.63;100684.88;1748655;79;27341;-69
2022/08/26 01:39:36;;;;;;;;;;;;;;;21.43;79.74;100689.11;1748872;79;83969;-69
2022/08/26 01:42:05;;;;;;;;;;;;;;;21.39;79.69;100679.84;1756886;79;25800;-69
2022/08/26 01:44:35;;;;;;;;;;;;;;;21.36;79.84;100679.23;1745893;79;84110;-69
2022/08/26 01:47:01;;;;;;;;;;;;;;;21.34;80.18;100679.88;1762977;79;25782;-69
2022/08/26 01:49:27;;;;;;;;;;;;;;;21.32;80.22;100680.51;1756420;79;84547;-69
2022/08/26 01:51:55;;;;;;;;;;;;;;;21.29;80.30;100675.33;1755415;79;26674;-69
2022/08/26 01:54:21;;;;;;;;;;;;;;;21.26;80.32;100670.14;1766756;79;26403;-68
2022/08/26 01:56:47;;;;;;;;;;;;;;;21.23;80.40;100667.68;1752809;79;84153;-69
2022/08/26 01:59:14;;;;;;;;;;;;;;;21.18;80.57;100665.33;1751959;79;25670;-69
2022/08/26 02:01:40;;;;;;;;;;;;;;;21.16;80.75;100663.23;1747815;80;84190;-69
2022/08/26 02:04:25;;;;;;;;;;;;;;;21.14;81.02;100666.59;1752448;81;25410;-69
2022/08/26 02:06:52;;;;;;;;;;;;;;;21.14;80.84;100663.86;1752455;81;25958;-69
2022/08/26 02:09:19;;;;;;;;;;;;;;;21.11;80.98;100660.54;1730835;82;84105;-70
2022/08/26 02:11:45;;;;;;;;;;;;;;;21.07;81.21;100666.26;1721730;82;26493;-69
2022/08/26 02:14:15;;;;;;;;;;;;;;;21.03;81.22;100651.17;1712784;82;84177;-69
2022/08/26 02:16:43;;;;;;;;;;;;;;;21.01;81.41;100656.39;1722790;82;25747;-70
2022/08/26 02:19:14;;;;;;;;;;;;;;;20.99;81.73;100655.16;1753190;81;25743;-70
2022/08/26 02:21:40;;;;;;;;;;;;;;;20.97;81.85;100654.42;1726118;81;84632;-68
2022/08/26 02:24:08;;;;;;;;;;;;;;;20.96;81.81;100654.06;1721408;82;25837;-70
2022/08/26 02:26:34;;;;;;;;;;;;;;;20.94;82.11;100651.97;1713133;82;84775;-69
2022/08/26 02:29:06;;;;;;;;;;;;;;;20.93;82.06;100646.66;1717678;81;26274;-70
2022/08/26 02:31:31;;;;;;;;;;;;;;;20.92;82.11;100651.73;1729124;81;85505;-69
2022/08/26 02:34:13;;;;;;;;;;;;;;;20.87;82.37;100649.41;1744190;81;25799;-69
2022/08/26 02:36:39;;;;;;;;;;;;;;;20.88;82.66;100653.86;1740910;81;25771;-69
2022/08/26 02:39:05;;;;;;;;;;;;;;;20.85;82.41;100644.59;1740668;81;84263;-69
2022/08/26 02:41:32;;;;;;;;;;;;;;;20.83;82.63;100645.22;1748413;81;25760;-70
2022/08/26 02:43:59;;;;;;;;;;;;;;;20.82;82.59;100642.62;1750689;80;84508;-70
2022/08/26 02:46:25;;;;;;;;;;;;;;;20.78;82.79;100647.50;1746809;81;26154;-69
2022/08/26 02:48:50;;;;;;;;;;;;;;;20.77;82.94;100644.42;1737265;81;25829;-69
2022/08/26 02:51:17;;;;;;;;;;;;;;;20.75;83.01;100651.86;1758042;80;85192;-68
2022/08/26 02:53:42;;;;;;;;;;;;;;;20.72;82.94;100642.09;1743956;81;26362;-69
2022/08/26 02:56:09;;;;;;;;;;;;;;;20.69;83.18;100640.13;1747360;81;84167;-69
2022/08/26 02:58:35;;;;;;;;;;;;;;;20.67;83.32;100642.11;1755285;81;25741;-69
2022/08/26 03:01:00;;;;;;;;;;;;;;;20.64;83.27;100643.23;1752860;79;25943;-69
2022/08/26 03:03:26;;;;;;;;;;;;;;;20.60;83.50;100637.69;1757710;79;83890;-69
2022/08/26 03:05:53;;;;;;;;;;;;;;;20.53;83.52;100629.67;1760605;79;25768;-69
2022/08/26 03:08:19;;;;;;;;;;;;;;;20.55;83.51;100638.58;1755652;79;83929;-69
2022/08/26 03:10:46;;;;;;;;;;;;;;;20.50;83.61;100628.58;1751559;79;27795;-69
2022/08/26 03:13:13;;;;;;;;;;;;;;;20.44;83.70;100633.17;1752202;79;25771;-70
2022/08/26 03:15:39;;;;;;;;;;;;;;;20.41;83.92;100638.39;1764303;79;84042;-70
2022/08/26 03:18:05;;;;;;;;;;;;;;;20.38;84.06;100636.39;1755343;79;25762;-69
2022/08/26 03:20:32;;;;;;;;;;;;;;;20.35;84.11;100638.88;1753288;79;85217;-70
2022/08/26 03:22:58;;;;;;;;;;;;;;;20.31;84.31;100639.26;1751828;79;26377;-68
2022/08/26 03:25:24;;;;;;;;;;;;;;;20.28;84.46;100636.79;1755497;79;84253;-69
2022/08/26 03:27:51;;;;;;;;;;;;;;;20.27;84.58;100642.73;1765748;79;27401;-69
2022/08/26 03:33:03;;;;;;;;;;;;;;;20.26;84.84;100630.61;1767007;79;84034;-70
2022/08/26 03:35:31;;;;;;;;;;;;;;;20.30;84.89;100639.75;1759051;79;26438;-70
2022/08/26 03:37:56;;;;;;;;;;;;;;;20.29;84.83;100637.16;1762223;79;84145;-70
2022/08/26 03:40:22;;;;;;;;;;;;;;;20.23;85.03;100635.81;1763959;79;27387;-69
2022/08/26 03:42:49;;;;;;;;;;;;;;;20.21;85.17;100641.02;1764519;79;27182;-70
2022/08/26 03:45:16;;;;;;;;;;;;;;;20.23;85.51;100639.90;1751013;79;84436;-70
2022/08/26 03:47:42;;;;;;;;;;;;;;;20.24;85.41;100638.91;1764996;79;25925;-70
2022/08/26 03:50:10;;;;;;;;;;;;;;;20.26;85.57;100641.00;1753994;78;85235;-70
2022/08/26 03:52:36;;;;;;;;;;;;;;;20.28;85.43;100635.43;1758443;79;27469;-70
2022/08/26 03:55:04;;;;;;;;;;;;;;;20.26;85.49;100638.78;1759365;79;26478;-70
2022/08/26 03:57:31;;;;;;;;;;;;;;;20.25;85.78;100637.05;1761324;79;84963;-69
2022/08/26 03:59:57;;;;;;;;;;;;;;;20.24;85.76;100633.47;1764538;79;25945;-69
2022/08/26 04:02:23;;;;;;;;;;;;;;;20.27;85.80;100633.20;1755628;79;84142;-69
2022/08/26 04:04:49;;;;;;;;;;;;;;;20.28;85.83;100633.57;1767383;79;28109;-68
2022/08/26 04:07:16;;;;;;;;;;;;;;;20.27;85.80;100633.20;1759750;79;25748;-69
2022/08/26 04:09:41;;;;;;;;;;;;;;;20.27;85.77;100638.65;1751371;79;84779;-69
2022/08/26 04:12:09;;;;;;;;;;;;;;;20.25;85.70;100641.13;1752554;79;25884;-69
2022/08/26 04:14:36;;;;;;;;;;;;;;;20.21;85.79;100639.66;1759429;79;84087;-69
2022/08/26 04:17:03;;;;;;;;;;;;;;;20.20;86.02;100643.38;1731550;80;28305;-69
2022/08/26 04:19:30;;;;;;;;;;;;;;;20.19;85.95;100637.56;1727954;81;84557;-68
2022/08/26 04:21:56;;;;;;;;;;;;;;;20.15;86.02;100637.45;1756972;79;25693;-70
2022/08/26 04:24:23;;;;;;;;;;;;;;;20.12;86.06;100641.29;1760525;79;26597;-69
2022/08/26 04:26:49;;;;;;;;;;;;;;;20.11;86.28;100642.28;1760801;79;84913;-69
2022/08/26 04:29:22;;;;;;;;;;;;;;;20.10;86.38;100637.83;1757071;79;28240;-70
2022/08/26 04:31:48;;;;;;;;;;;;;;;20.09;86.36;100638.83;1760341;79;84551;-69
2022/08/26 04:34:15;;;;;;;;;;;;;;;20.07;86.34;100638.09;1757511;79;26159;-69
2022/08/26 04:36:42;;;;;;;;;;;;;;;20.05;86.42;100630.55;1764689;79;28812;-69
2022/08/26 04:39:10;;;;;;;;;;;;;;;20.04;86.57;100646.50;1758704;79;85320;-70
2022/08/26 04:41:36;;;;;;;;;;;;;;;20.05;86.75;100641.43;1765301;79;27496;-69
2022/08/26 04:44:05;;;;;;;;;;;;;;;20.06;86.67;100648.60;1756064;79;84591;-70
2022/08/26 04:46:30;;;;;;;;;;;;;;;20.06;86.93;100642.66;1768191;79;26254;-69
2022/08/26 04:48:55;;;;;;;;;;;;;;;20.07;86.71;100646.25;1766385;79;25790;-70
2022/08/26 04:51:26;;;;;;;;;;;;;;;20.06;86.82;100641.30;1759270;79;83866;-69
2022/08/26 04:53:49;;;;;;;;;;;;;;;20.05;86.85;100638.70;1757139;79;28319;-69
2022/08/26 04:56:15;;;;;;;;;;;;;;;20.05;86.99;100635.98;1757071;79;84076;-69
2022/08/26 04:58:41;;;;;;;;;;;;;;;20.05;87.04;100642.30;1755473;79;25795;-69
2022/08/26 05:01:07;;;;;;;;;;;;;;;20.07;87.24;100646.25;1758377;79;27865;-70
2022/08/26 05:03:35;;;;;;;;;;;;;;;20.09;87.06;100645.12;1758714;79;85013;-70
2022/08/26 05:06:03;;;;;;;;;;;;;;;20.07;87.14;100643.03;1763663;79;27454;-69
2022/08/26 05:08:29;;;;;;;;;;;;;;;20.09;87.17;100645.12;1756228;79;84258;-69
2022/08/26 05:10:55;;;;;;;;;;;;;;;20.10;87.15;100644.14;1758235;79;25766;-70
2022/08/26 05:13:23;;;;;;;;;;;;;;;20.10;87.25;100648.22;1759640;79;84679;-68
2022/08/26 05:15:50;;;;;;;;;;;;;;;20.09;87.35;100645.62;1762722;79;25719;-69
2022/08/26 05:18:17;;;;;;;;;;;;;;;20.13;87.43;100651.68;1759943;79;27460;-71
2022/08/26 05:20:46;;;;;;;;;;;;;;;20.14;87.48;100658.36;1754139;79;84061;-72
2022/08/26 05:23:12;;;;;;;;;;;;;;;20.15;87.57;100655.14;1748464;79;26501;-70
2022/08/26 05:25:40;;;;;;;;;;;;;;;20.18;87.56;100655.75;1762140;79;84747;-71
2022/08/26 05:28:10;;;;;;;;;;;;;;;20.20;87.48;100661.06;1762809;79;25735;-72
2022/08/26 05:30:36;;;;;;;;;;;;;;;20.19;87.47;100661.56;1745668;79;27479;-71
2022/08/26 05:33:03;;;;;;;;;;;;;;;20.20;87.60;100661.06;1758461;79;84313;-70
2022/08/26 05:35:33;;;;;;;;;;;;;;;20.24;87.73;100663.90;1734512;80;25765;-73
2022/08/26 05:37:59;;;;;;;;;;;;;;;20.25;87.74;100662.91;1749357;79;84633;-71
2022/08/26 05:40:25;;;;;;;;;;;;;;;20.29;87.77;100657.08;1754963;79;25790;-71
2022/08/26 05:42:51;;;;;;;;;;;;;;;20.33;87.79;100660.41;1758895;79;27532;-72
2022/08/26 05:45:18;;;;;;;;;;;;;;;20.38;87.78;100667.69;1764833;79;84710;-71
2022/08/26 05:47:44;;;;;;;;;;;;;;;20.46;87.97;100657.55;1756248;79;26202;-71
2022/08/26 05:50:10;;;;;;;;;;;;;;;20.54;87.74;100665.94;1761082;79;84962;-71
2022/08/26 05:52:36;;;;;;;;;;;;;;;20.54;87.60;100661.85;1753441;79;25701;-71
2022/08/26 05:55:03;;;;;;;;;;;;;;;20.56;87.63;100662.09;1760128;79;27802;-71
2022/08/26 05:57:29;;;;;;;;;;;;;;;20.59;87.60;100659.61;1753454;79;84876;-71
2022/08/26 05:59:56;;;;;;;;;;;;;;;20.62;87.55;100659.34;1767238;79;25836;-71
2022/08/26 06:02:22;;;;;;;;;;;;;;;20.53;87.57;100636.48;1760928;79;84642;-69
2022/08/26 06:04:48;;;;;;;;;;;;;;;20.71;87.70;100649.03;1753425;79;26238;-70
2022/08/26 06:07:15;;;;;;;;;;;;;;;20.78;87.63;100650.23;1765528;79;28094;-70
2022/08/26 06:09:42;;;;;;;;;;;;;;;20.85;87.53;100655.98;1755388;79;83835;-70
2022/08/26 06:12:08;;;;;;;;;;;;;;;20.90;87.46;100654.59;1760514;79;25804;-70
2022/08/26 06:14:34;;;;;;;;;;;;;;;20.96;87.46;100655.92;1763984;79;84504;-70
2022/08/26 06:17:00;;;;;;;;;;;;;;;21.01;87.32;100650.44;1757928;79;25858;-69
2022/08/26 06:19:26;;;;;;;;;;;;;;;21.05;87.26;100658.71;1752622;79;84713;-69
2022/08/26 06:21:53;;;;;;;;;;;;;;;21.10;87.16;100655.59;1762972;79;25749;-70
2022/08/26 06:27:08;;;;;;;;;;;;;;;21.18;87.07;100657.64;1757589;79;84055;-70
2022/08/26 06:29:34;;;;;;;;;;;;;;;21.27;86.96;100654.14;1764253;79;25956;-70
2022/08/26 06:32:01;;;;;;;;;;;;;;;21.33;86.82;100649.52;1750463;79;84720;-71
2022/08/26 06:34:28;;;;;;;;;;;;;;;21.35;86.66;100652.47;1748652;79;25750;-70
2022/08/26 06:36:54;;;;;;;;;;;;;;;21.41;86.60;100654.30;1751170;79;26410;-70
2022/08/26 06:39:20;;;;;;;;;;;;;;;21.44;86.43;100650.80;1756959;79;84105;-70
2022/08/26 06:41:46;;;;;;;;;;;;;;;21.47;86.27;100655.98;1764398;79;26227;-70
2022/08/26 06:44:13;;;;;;;;;;;;;;;21.48;86.11;100647.30;1753305;79;84083;-69
2022/08/26 06:46:40;;;;;;;;;;;;;;;21.52;86.03;100653.70;1757229;79;26601;-70
2022/08/26 06:49:06;;;;;;;;;;;;;;;21.58;85.90;100646.34;1761175;79;26223;-70
2022/08/26 06:51:34;;;;;;;;;;;;;;;21.63;85.82;100646.80;1750996;79;84571;-70
2022/08/26 06:54:02;;;;;;;;;;;;;;;21.69;85.69;100642.66;1756802;79;25697;-61
2022/08/26 06:56:34;;;;;;;;;;;;;;;21.77;85.62;100640.59;1768204;79;84188;-60
2022/08/26 06:59:00;;;;;;;;;;;;;;;21.85;85.37;100641.63;1749067;79;26167;-60
2022/08/26 07:01:29;;;;;;;;;;;;;;;21.92;85.18;100635.12;1749666;79;84883;-63
2022/08/26 07:03:57;;;;;;;;;;;;;;;21.97;85.01;100635.06;1757858;79;25720;-61
2022/08/26 07:06:25;;;;;;;;;;;;;;;22.07;84.87;100639.71;1758953;79;25758;-62
2022/08/26 07:08:52;;;;;;;;;;;;;;;22.14;84.68;100642.23;1757203;79;84133;-63
2022/08/26 07:11:19;;;;;;;;;;;;;;;22.24;84.49;100641.76;1750448;79;26656;-63
2022/08/26 07:13:46;;;;;;;;;;;;;;;22.33;84.33;100637.67;1759385;79;84570;-62
2022/08/26 07:16:14;;;;;;;;;;;;;;;22.43;84.01;100638.19;1748926;79;25805;-63
2022/08/26 07:18:41;;;;;;;;;;;;;;;22.48;83.91;100634.02;1757818;79;25810;-62
2022/08/26 07:21:09;;;;;;;;;;;;;;;22.58;83.62;100640.84;1751136;79;84355;-64
2022/08/26 07:23:36;;;;;;;;;;;;;;;22.64;83.35;100638.91;1753904;79;25790;-64
2022/08/26 07:26:14;;;;;;;;;;;;;;;22.69;83.17;100635.24;1756794;79;84088;-62
2022/08/26 07:28:39;;;;;;;;;;;;;;;22.70;82.82;100636.11;1756075;79;25911;-62
2022/08/26 07:31:07;;;;;;;;;;;;;;;22.76;82.69;100625.45;1754258;79;25960;-62
2022/08/26 07:33:34;;;;;;;;;;;;;;;22.87;82.66;100625.34;1752673;79;85021;-61
2022/08/26 07:35:59;;;;;;;;;;;;;;;22.98;82.42;100628.41;1754775;79;26717;-62
2022/08/26 07:38:25;;;;;;;;;;;;;;;23.02;82.02;100622.15;1749115;79;84066;-62
2022/08/26 07:40:51;;;;;;;;;;;;;;;23.08;81.84;100628.39;1757174;79;25795;-62
2022/08/26 07:43:17;;;;;;;;;;;;;;;23.13;81.44;100633.78;1753593;79;25846;-62
2022/08/26 07:45:43;;;;;;;;;;;;;;;23.18;81.31;100627.36;1753800;79;84769;-62
2022/08/26 07:48:09;;;;;;;;;;;;;;;23.25;81.11;100630.37;1756942;79;25719;-62
2022/08/26 07:50:34;;;;;;;;;;;;;;;23.34;80.79;100632.72;1753636;79;84084;-62
2022/08/26 07:53:01;;;;;;;;;;;;;;;23.43;80.60;100625.81;1755784;79;25814;-62
2022/08/26 07:55:28;;;;;;;;;;;;;;;23.53;80.56;100621.67;1755225;79;84465;-61
2022/08/26 07:57:53;;;;;;;;;;;;;;;23.67;80.36;100626.69;1751208;79;27785;-62
2022/08/26 08:00:21;;;;;;;;;;;;;;;23.76;80.17;100625.77;1752080;79;25944;-62
2022/08/26 08:02:47;;;;;;;;;;;;;;;23.86;79.94;100620.25;1756615;79;85331;-61
2022/08/26 08:05:15;;;;;;;;;;;;;;;23.96;79.68;100630.64;1759674;79;26333;-60
2022/08/26 08:07:43;;;;;;;;;;;;;;;24.01;79.15;100626.07;1753353;79;84233;-63
2022/08/26 08:10:12;;;;;;;;;;;;;;;24.06;78.94;100630.08;1738602;81;27393;-61
2022/08/26 08:12:39;;;;;;;;;;;;;;;24.13;78.89;100624.33;1761654;79;25959;-62
2022/08/26 08:15:07;;;;;;;;;;;;;;;24.20;78.45;100626.81;1758364;79;84471;-63
2022/08/26 08:17:33;;;;;;;;;;;;;;;24.28;78.09;100631.55;1763905;79;26420;-63
2022/08/26 08:20:00;;;;;;;;;;;;;;;24.33;77.88;100627.83;1757418;79;84358;-63
2022/08/26 08:22:26;;;;;;;;;;;;;;;24.40;77.50;100628.94;1758235;79;27357;-63
2022/08/26 08:24:52;;;;;;;;;;;;;;;24.47;77.31;100627.80;1767062;79;25702;-62
2022/08/26 08:27:18;;;;;;;;;;;;;;;24.54;76.87;100624.28;1762946;79;84424;-63
2022/08/26 08:29:45;;;;;;;;;;;;;;;24.63;76.88;100627.95;1748997;79;25897;-62
2022/08/26 08:32:12;;;;;;;;;;;;;;;24.71;76.44;100626.66;1767301;79;84170;-62
2022/08/26 08:34:38;;;;;;;;;;;;;;;24.78;76.31;100623.63;1759464;79;27456;-62
2022/08/26 08:37:05;;;;;;;;;;;;;;;24.86;76.24;100616.84;1760400;79;25786;-62
2022/08/26 08:39:32;;;;;;;;;;;;;;;24.96;75.78;100614.02;1753376;79;84067;-61
2022/08/26 08:42:22;;;;;;;;;;;;;;;25.01;75.57;100610.31;1748933;79;26412;-62
2022/08/26 08:44:49;;;;;;;;;;;;;;;25.05;75.46;100606.73;1752543;79;84096;-62
2022/08/26 08:47:21;;;;;;;;;;;;;;;25.14;74.87;100604.40;1760155;79;27477;-63
2022/08/26 08:49:47;;;;;;;;;;;;;;;25.18;74.45;100605.80;1757357;79;84317;-62
2022/08/26 08:52:31;;;;;;;;;;;;;;;25.24;74.17;100602.41;1756756;79;25864;-61
2022/08/26 08:54:57;;;;;;;;;;;;;;;25.33;73.65;100604.69;1760065;79;25739;-63
2022/08/26 08:57:33;;;;;;;;;;;;;;;25.44;73.45;100599.78;1728317;80;84439;-62
2022/08/26 09:00:13;;;;;;;;;;;;;;;25.55;73.03;100601.38;1768370;79;27584;-62
2022/08/26 09:02:42;;;;;;;;;;;;;;;25.65;72.82;100600.78;1751173;79;84987;-62
2022/08/26 09:05:23;;;;;;;;;;;;;;;25.74;72.73;100604.42;1757122;80;25727;-63
2022/08/26 09:07:51;;;;;;;;;;;;;;;25.83;72.57;100597.93;1766712;79;84293;-62
2022/08/26 09:10:33;;;;;;;;;;;;;;;25.92;71.90;100594.19;1765256;80;26793;-63
2022/08/26 09:13:01;;;;;;;;;;;;;;;25.97;71.41;100592.31;1763093;80;28455;-63
2022/08/26 09:15:37;;;;;;;;;;;;;;;26.03;71.09;100596.59;1753388;80;84352;-63
2022/08/26 09:18:25;;;;;;;;;;;;;;;26.09;70.79;100589.05;1766243;79;26481;-63
2022/08/26 09:20:59;;;;;;;;;;;;;;;26.17;70.47;100583.58;1713493;80;84443;-62
2022/08/26 09:23:25;;;;;;;;;;;;;;;26.26;70.43;100584.45;1759365;80;25783;-62
2022/08/26 09:25:57;;;;;;;;;;;;;;;26.31;69.87;100586.69;1755699;80;85196;-62
2022/08/26 09:28:25;;;;;;;;;;;;;;;26.34;69.45;100582.27;1760225;80;25654;-62
2022/08/26 09:31:16;;;;;;;;;;;;;;;26.38;68.93;100582.27;1754024;80;25733;-60
2022/08/26 09:33:42;;;;;;;;;;;;;;;26.46;68.58;100583.65;1756754;80;85068;-61
2022/08/26 09:36:25;;;;;;;;;;;;;;;26.53;68.26;100581.94;1765871;80;26353;-61
2022/08/26 09:38:51;;;;;;;;;;;;;;;26.60;68.36;100582.11;1751077;80;84202;-61
2022/08/26 09:41:23;;;;;;;;;;;;;;;26.61;67.81;100577.81;1761237;80;25981;-62
2022/08/26 09:44:13;;;;;;;;;;;;;;;26.66;67.76;100564.41;1755714;80;84616;-61
2022/08/26 09:46:45;;;;;;;;;;;;;;;26.76;67.55;100569.22;1765541;80;26346;-61
2022/08/26 09:49:29;;;;;;;;;;;;;;;26.87;67.34;100568.01;1755836;80;25671;-61
2022/08/26 09:52:08;;;;;;;;;;;;;;;26.97;66.95;100573.36;1756628;80;84282;-61
2022/08/26 09:54:35;;;;;;;;;;;;;;;27.05;66.78;100565.09;1761323;80;25821;-62
2022/08/26 09:57:19;;;;;;;;;;;;;;;27.14;66.50;100558.54;1759746;79;84435;-61
2022/08/26 09:59:45;;;;;;;;;;;;;;;27.24;66.47;100561.95;1758373;80;25751;-61
2022/08/26 10:02:18;;;;;;;;;;;;;;;27.29;65.61;100559.53;1756635;80;84329;-61
2022/08/26 10:04:53;;;;;;;;;;;;;;;27.35;65.26;100554.69;1725007;81;27499;-61
2022/08/26 10:07:40;;;;;;;;;;;;;;;27.41;65.18;100554.50;1725561;81;25958;-63
2022/08/26 10:10:15;;;;;;;;;;;;;;;27.44;64.58;100559.65;1726475;81;84507;-61
2022/08/26 10:13:06;;;;;;;;;;;;;;;27.48;64.59;100554.98;1707917;81;26776;-62
2022/08/26 10:15:47;;;;;;;;;;;;;;;27.52;64.32;100545.86;1727417;81;84660;-61
2022/08/26 10:18:19;;;;;;;;;;;;;;;27.63;64.17;100544.12;1725877;81;27395;-61
2022/08/26 10:21:05;;;;;;;;;;;;;;;27.74;63.84;100545.09;1721015;81;84399;-62
2022/08/26 10:23:34;;;;;;;;;;;;;;;27.82;63.96;100546.95;1723728;81;25916;-61
2022/08/26 10:26:15;;;;;;;;;;;;;;;27.92;63.51;100546.20;1723252;81;84229;-62
2022/08/26 10:29:08;;;;;;;;;;;;;;;27.99;63.28;100537.55;1731408;81;26524;-62
2022/08/26 10:31:38;;;;;;;;;;;;;;;28.10;62.90;100535.75;1723925;81;27390;-62
2022/08/26 10:34:03;;;;;;;;;;;;;;;28.21;62.47;100530.86;1728354;81;84149;-63
2022/08/26 10:36:48;;;;;;;;;;;;;;;28.31;62.15;100530.12;1684582;82;26364;-63
2022/08/26 10:39:35;;;;;;;;;;;;;;;28.44;61.82;100535.36;1727550;81;84304;-63
2022/08/26 10:42:08;;;;;;;;;;;;;;;28.64;61.61;100529.30;1728533;81;25900;-63
2022/08/26 10:44:36;;;;;;;;;;;;;;;28.77;61.28;100529.00;1727111;81;85294;-63
2022/08/26 10:47:05;;;;;;;;;;;;;;;28.88;61.14;100530.48;1733085;81;25783;-63
2022/08/26 10:49:31;;;;;;;;;;;;;;;28.98;60.79;100528.83;1722478;81;25818;-62
2022/08/26 10:52:00;;;;;;;;;;;;;;;29.07;60.25;100528.55;1727444;81;84342;-62
2022/08/26 10:54:36;;;;;;;;;;;;;;;29.16;59.62;100523.80;1718037;81;25766;-62
2022/08/26 10:57:05;;;;;;;;;;;;;;;29.24;59.04;100521.47;1723259;81;84221;-62
2022/08/26 10:59:34;;;;;;;;;;;;;;;29.33;58.66;100523.08;1725232;81;27128;-62
2022/08/26 11:02:24;;;;;;;;;;;;;;;29.41;58.30;100521.08;1722065;81;84807;-62
2022/08/26 11:04:55;;;;;;;;;;;;;;;29.48;58.03;100517.06;1710074;82;27813;-62
2022/08/26 11:07:39;;;;;;;;;;;;;;;29.55;58.06;100513.86;1740246;81;26074;-62
2022/08/26 11:10:09;;;;;;;;;;;;;;;29.61;57.62;100512.23;1737279;81;83868;-61
2022/08/26 11:12:38;;;;;;;;;;;;;;;29.71;57.40;100509.49;1742309;81;25729;-62
2022/08/26 11:15:09;;;;;;;;;;;;;;;29.80;57.14;100501.95;1722449;81;84535;-62
2022/08/26 11:17:48;;;;;;;;;;;;;;;29.90;57.25;100499.73;1731791;81;26777;-61
2022/08/26 11:20:37;;;;;;;;;;;;;;;29.94;56.41;100498.80;1744151;81;84572;-61
2022/08/26 11:23:21;;;;;;;;;;;;;;;30.02;56.10;100500.09;1738772;81;27378;-62
2022/08/26 11:26:11;;;;;;;;;;;;;;;30.09;55.57;100497.41;1732169;81;84216;-62
2022/08/26 11:28:46;;;;;;;;;;;;;;;30.13;54.92;100491.28;1738636;81;25692;-62
2022/08/26 11:31:25;;;;;;;;;;;;;;;30.18;54.83;100485.16;1740571;81;26346;-63
2022/08/26 11:34:00;;;;;;;;;;;;;;;30.25;54.59;100485.55;1731573;81;84997;-61
2022/08/26 11:36:41;;;;;;;;;;;;;;;30.31;53.82;100477.00;1732638;81;28155;-62
2022/08/26 11:39:29;;;;;;;;;;;;;;;30.37;53.51;100474.81;1739207;81;84325;-62
2022/08/26 11:41:58;;;;;;;;;;;;;;;30.44;53.16;100479.02;1732438;81;25561;-62
2022/08/26 11:44:28;;;;;;;;;;;;;;;30.54;52.90;100474.00;1737317;81;84347;-62
2022/08/26 11:46:56;;;;;;;;;;;;;;;30.62;52.87;100473.36;1731794;81;25820;-62
2022/08/26 11:49:23;;;;;;;;;;;;;;;30.67;52.65;100463.93;1740477;81;27477;-60
2022/08/26 11:51:49;;;;;;;;;;;;;;;30.71;52.48;100466.30;1736188;81;84558;-63
2022/08/26 11:54:18;;;;;;;;;;;;;;;30.76;52.46;100467.39;1740960;81;26713;-61
2022/08/26 11:56:47;;;;;;;;;;;;;;;30.88;52.43;100467.16;1731650;80;84002;-62
2022/08/26 11:59:16;;;;;;;;;;;;;;;30.92;52.17;100459.31;1740728;81;26241;-62
2022/08/26 12:01:45;;;;;;;;;;;;;;;31.00;52.10;100457.77;1730435;81;27443;-61
2022/08/26 12:04:29;;;;;;;;;;;;;;;31.07;52.04;100451.73;1737928;80;85611;-62
2022/08/26 12:06:56;;;;;;;;;;;;;;;31.16;51.87;100456.08;1754769;79;25642;-61
2022/08/26 12:09:25;;;;;;;;;;;;;;;31.32;51.64;100455.70;1748050;79;85027;-60
2022/08/26 12:11:52;;;;;;;;;;;;;;;31.45;51.34;100454.05;1752685;79;25531;-60
2022/08/26 12:14:21;;;;;;;;;;;;;;;31.60;51.12;100446.43;1760440;79;85146;-61
2022/08/26 12:16:47;;;;;;;;;;;;;;;31.75;50.33;100449.06;1754864;79;26169;-60
2022/08/26 12:19:28;;;;;;;;;;;;;;;31.86;49.98;100451.23;1756845;79;26054;-61
2022/08/26 12:22:03;;;;;;;;;;;;;;;31.96;49.86;100437.28;1750778;79;84140;-61
2022/08/26 12:24:29;;;;;;;;;;;;;;;32.04;49.61;100438.14;1755682;79;25837;-61
2022/08/26 12:27:14;;;;;;;;;;;;;;;32.14;49.43;100431.65;1748462;79;84365;-61
2022/08/26 12:29:40;;;;;;;;;;;;;;;32.21;49.13;100433.36;1755074;79;25420;-61
2022/08/26 12:32:09;;;;;;;;;;;;;;;32.29;48.88;100426.78;1760252;79;84394;-60
2022/08/26 12:34:37;;;;;;;;;;;;;;;32.37;48.59;100425.19;1743388;79;25789;-61
2022/08/26 12:37:06;;;;;;;;;;;;;;;32.49;48.43;100429.55;1755721;79;25688;-65
2022/08/26 12:39:35;;;;;;;;;;;;;;;32.57;48.20;100418.23;1750591;79;84199;-66
2022/08/26 12:42:14;;;;;;;;;;;;;;;32.74;47.72;100420.02;1757284;79;26172;-67
2022/08/26 12:44:46;;;;;;;;;;;;;;;32.88;47.04;100420.34;1750321;79;84488;-66
2022/08/26 12:47:21;;;;;;;;;;;;;;;33.10;46.77;100416.76;1766050;79;26565;-65
2022/08/26 12:49:48;;;;;;;;;;;;;;;33.27;46.26;100411.56;1757321;79;25774;-67
2022/08/26 12:52:28;;;;;;;;;;;;;;;33.42;45.56;100401.05;1750353;79;84734;-66